sensor_id;sensor_type;location;lat;lon;timestamp;temperature;humidity
22321;DHT22;11328;53.928;18.522;2023-04-29T00:00:16;9.50;91.20
22321;DHT22;11328;53.928;18.522;2023-04-29T00:02:44;9.40;91.10
22321;DHT22;11328;53.928;18.522;2023-04-29T00:05:11;9.40;91.30
22321;DHT22;11328;53.928;18.522;2023-04-29T00:07:39;9.40;91.30
22321;DHT22;11328;53.928;18.522;2023-04-29T00:10:06;9.40;91.40
22321;DHT22;11328;53.928;18.522;2023-04-29T00:12:33;9.40;91.40
22321;DHT22;11328;53.928;18.522;2023-04-29T00:15:00;9.40;91.60
22321;DHT22;11328;53.928;18.522;2023-04-29T00:17:28;9.40;91.90
22321;DHT22;11328;53.928;18.522;2023-04-29T00:19:55;9.40;92.10
22321;DHT22;11328;53.928;18.522;2023-04-29T00:22:22;9.30;91.90
22321;DHT22;11328;53.928;18.522;2023-04-29T00:24:50;9.20;92.30
22321;DHT22;11328;53.928;18.522;2023-04-29T00:27:17;9.20;92.30
22321;DHT22;11328;53.928;18.522;2023-04-29T00:29:44;9.20;92.40
22321;DHT22;11328;53.928;18.522;2023-04-29T00:32:11;9.20;92.60
22321;DHT22;11328;53.928;18.522;2023-04-29T00:34:38;9.20;92.20
22321;DHT22;11328;53.928;18.522;2023-04-29T00:37:05;9.10;92.30
22321;DHT22;11328;53.928;18.522;2023-04-29T00:39:32;9.10;92.60
22321;DHT22;11328;53.928;18.522;2023-04-29T00:41:59;9.10;92.30
22321;DHT22;11328;53.928;18.522;2023-04-29T00:44:28;9.10;92.30
22321;DHT22;11328;53.928;18.522;2023-04-29T00:46:55;9.10;92.40
22321;DHT22;11328;53.928;18.522;2023-04-29T00:49:23;9.00;92.40
22321;DHT22;11328;53.928;18.522;2023-04-29T00:51:50;9.00;92.30
22321;DHT22;11328;53.928;18.522;2023-04-29T00:54:17;9.00;92.40
22321;DHT22;11328;53.928;18.522;2023-04-29T00:56:45;9.00;92.70
22321;DHT22;11328;53.928;18.522;2023-04-29T00:59:12;8.90;92.40
22321;DHT22;11328;53.928;18.522;2023-04-29T01:01:42;9.00;92.60
22321;DHT22;11328;53.928;18.522;2023-04-29T01:04:10;8.90;92.50
22321;DHT22;11328;53.928;18.522;2023-04-29T01:18:03;8.90;92.50
22321;DHT22;11328;53.928;18.522;2023-04-29T01:20:38;8.90;92.80
22321;DHT22;11328;53.928;18.522;2023-04-29T01:23:07;8.90;92.90
22321;DHT22;11328;53.928;18.522;2023-04-29T01:25:34;8.90;93.10
22321;DHT22;11328;53.928;18.522;2023-04-29T01:28:07;8.90;93.00
22321;DHT22;11328;53.928;18.522;2023-04-29T01:30:57;8.90;93.40
22321;DHT22;11328;53.928;18.522;2023-04-29T01:33:43;8.90;93.30
22321;DHT22;11328;53.928;18.522;2023-04-29T01:39:44;8.90;93.10
22321;DHT22;11328;53.928;18.522;2023-04-29T01:42:29;8.90;93.00
22321;DHT22;11328;53.928;18.522;2023-04-29T01:45:00;8.90;93.10
22321;DHT22;11328;53.928;18.522;2023-04-29T01:47:32;8.90;93.00
22321;DHT22;11328;53.928;18.522;2023-04-29T01:49:59;8.90;93.00
22321;DHT22;11328;53.928;18.522;2023-04-29T01:52:27;8.90;92.90
22321;DHT22;11328;53.928;18.522;2023-04-29T01:54:54;8.80;93.10
22321;DHT22;11328;53.928;18.522;2023-04-29T01:57:22;8.80;93.20
22321;DHT22;11328;53.928;18.522;2023-04-29T01:59:49;8.80;93.20
22321;DHT22;11328;53.928;18.522;2023-04-29T02:02:16;8.80;93.20
22321;DHT22;11328;53.928;18.522;2023-04-29T02:04:47;8.80;93.40
22321;DHT22;11328;53.928;18.522;2023-04-29T02:07:16;8.80;93.50
22321;DHT22;11328;53.928;18.522;2023-04-29T02:09:43;8.70;93.40
22321;DHT22;11328;53.928;18.522;2023-04-29T02:12:10;8.70;93.50
22321;DHT22;11328;53.928;18.522;2023-04-29T02:14:37;8.70;93.80
22321;DHT22;11328;53.928;18.522;2023-04-29T02:17:04;8.60;93.80
22321;DHT22;11328;53.928;18.522;2023-04-29T02:19:31;8.60;93.90
22321;DHT22;11328;53.928;18.522;2023-04-29T02:21:58;8.60;93.90
22321;DHT22;11328;53.928;18.522;2023-04-29T02:24:25;8.60;94.10
22321;DHT22;11328;53.928;18.522;2023-04-29T02:26:52;8.50;94.20
22321;DHT22;11328;53.928;18.522;2023-04-29T02:29:19;8.50;94.20
22321;DHT22;11328;53.928;18.522;2023-04-29T02:31:46;8.50;94.40
22321;DHT22;11328;53.928;18.522;2023-04-29T02:34:13;8.40;94.40
22321;DHT22;11328;53.928;18.522;2023-04-29T02:36:40;8.40;94.50
22321;DHT22;11328;53.928;18.522;2023-04-29T02:39:07;8.40;94.70
22321;DHT22;11328;53.928;18.522;2023-04-29T02:41:34;8.40;94.90
22321;DHT22;11328;53.928;18.522;2023-04-29T02:44:01;8.40;95.10
22321;DHT22;11328;53.928;18.522;2023-04-29T02:46:27;8.40;95.20
22321;DHT22;11328;53.928;18.522;2023-04-29T02:48:54;8.40;95.20
22321;DHT22;11328;53.928;18.522;2023-04-29T02:51:21;8.40;95.30
22321;DHT22;11328;53.928;18.522;2023-04-29T02:53:48;8.30;95.50
22321;DHT22;11328;53.928;18.522;2023-04-29T02:56:15;8.40;95.40
22321;DHT22;11328;53.928;18.522;2023-04-29T02:58:42;8.40;95.50
22321;DHT22;11328;53.928;18.522;2023-04-29T03:01:09;8.40;95.40
22321;DHT22;11328;53.928;18.522;2023-04-29T03:03:37;8.40;95.50
22321;DHT22;11328;53.928;18.522;2023-04-29T03:06:05;8.40;95.60
22321;DHT22;11328;53.928;18.522;2023-04-29T03:08:32;8.40;95.70
22321;DHT22;11328;53.928;18.522;2023-04-29T03:10:59;8.40;95.70
22321;DHT22;11328;53.928;18.522;2023-04-29T03:13:26;8.40;95.90
22321;DHT22;11328;53.928;18.522;2023-04-29T03:15:53;8.40;95.90
22321;DHT22;11328;53.928;18.522;2023-04-29T03:18:20;8.50;95.90
22321;DHT22;11328;53.928;18.522;2023-04-29T03:20:47;8.50;96.10
22321;DHT22;11328;53.928;18.522;2023-04-29T03:23:14;8.60;96.10
22321;DHT22;11328;53.928;18.522;2023-04-29T03:25:41;8.60;96.20
22321;DHT22;11328;53.928;18.522;2023-04-29T03:28:08;8.60;96.20
22321;DHT22;11328;53.928;18.522;2023-04-29T03:30:34;8.70;96.20
22321;DHT22;11328;53.928;18.522;2023-04-29T03:33:02;8.70;96.30
22321;DHT22;11328;53.928;18.522;2023-04-29T03:35:29;8.70;96.50
22321;DHT22;11328;53.928;18.522;2023-04-29T03:37:56;8.70;96.40
22321;DHT22;11328;53.928;18.522;2023-04-29T03:40:23;8.70;96.30
22321;DHT22;11328;53.928;18.522;2023-04-29T03:42:50;8.70;96.30
22321;DHT22;11328;53.928;18.522;2023-04-29T03:45:17;8.80;96.20
22321;DHT22;11328;53.928;18.522;2023-04-29T03:47:44;8.80;96.20
22321;DHT22;11328;53.928;18.522;2023-04-29T03:50:11;8.90;96.10
22321;DHT22;11328;53.928;18.522;2023-04-29T03:52:38;9.00;96.10
22321;DHT22;11328;53.928;18.522;2023-04-29T03:55:05;9.00;95.90
22321;DHT22;11328;53.928;18.522;2023-04-29T03:57:33;9.00;96.00
22321;DHT22;11328;53.928;18.522;2023-04-29T03:59:59;9.10;96.00
22321;DHT22;11328;53.928;18.522;2023-04-29T04:02:26;9.10;96.00
22321;DHT22;11328;53.928;18.522;2023-04-29T04:04:54;9.10;96.10
22321;DHT22;11328;53.928;18.522;2023-04-29T04:07:21;9.20;96.10
22321;DHT22;11328;53.928;18.522;2023-04-29T04:09:48;9.20;96.10
22321;DHT22;11328;53.928;18.522;2023-04-29T04:12:15;9.20;96.10
22321;DHT22;11328;53.928;18.522;2023-04-29T04:14:42;9.20;96.50
22321;DHT22;11328;53.928;18.522;2023-04-29T04:17:09;9.20;96.20
22321;DHT22;11328;53.928;18.522;2023-04-29T04:19:36;9.20;96.20
22321;DHT22;11328;53.928;18.522;2023-04-29T04:22:03;9.20;96.20
22321;DHT22;11328;53.928;18.522;2023-04-29T04:24:30;9.20;96.30
22321;DHT22;11328;53.928;18.522;2023-04-29T04:26:57;9.30;96.30
22321;DHT22;11328;53.928;18.522;2023-04-29T04:29:24;9.20;96.70
22321;DHT22;11328;53.928;18.522;2023-04-29T04:31:51;9.20;96.60
22321;DHT22;11328;53.928;18.522;2023-04-29T04:34:17;9.10;96.90
22321;DHT22;11328;53.928;18.522;2023-04-29T04:36:45;9.10;97.40
22321;DHT22;11328;53.928;18.522;2023-04-29T04:39:12;9.10;97.50
22321;DHT22;11328;53.928;18.522;2023-04-29T04:41:39;9.10;98.00
22321;DHT22;11328;53.928;18.522;2023-04-29T04:44:06;9.20;98.60
22321;DHT22;11328;53.928;18.522;2023-04-29T04:46:33;9.20;98.50
22321;DHT22;11328;53.928;18.522;2023-04-29T04:49:00;9.20;98.70
22321;DHT22;11328;53.928;18.522;2023-04-29T04:51:27;9.20;99.00
22321;DHT22;11328;53.928;18.522;2023-04-29T04:53:54;9.20;99.40
22321;DHT22;11328;53.928;18.522;2023-04-29T04:56:21;9.20;99.80
22321;DHT22;11328;53.928;18.522;2023-04-29T04:58:48;9.20;99.50
22321;DHT22;11328;53.928;18.522;2023-04-29T05:01:15;9.10;99.90
22321;DHT22;11328;53.928;18.522;2023-04-29T05:03:42;9.20;99.90
22321;DHT22;11328;53.928;18.522;2023-04-29T05:06:10;9.20;99.90
22321;DHT22;11328;53.928;18.522;2023-04-29T05:08:36;9.30;99.90
22321;DHT22;11328;53.928;18.522;2023-04-29T05:11:03;9.20;99.90
22321;DHT22;11328;53.928;18.522;2023-04-29T05:13:32;9.20;99.90
22321;DHT22;11328;53.928;18.522;2023-04-29T05:16:02;9.30;99.90
22321;DHT22;11328;53.928;18.522;2023-04-29T05:18:32;9.30;99.90
22321;DHT22;11328;53.928;18.522;2023-04-29T05:20:59;9.40;99.90
22321;DHT22;11328;53.928;18.522;2023-04-29T05:23:26;9.50;99.90
22321;DHT22;11328;53.928;18.522;2023-04-29T05:25:53;9.50;99.90
22321;DHT22;11328;53.928;18.522;2023-04-29T05:28:21;9.60;99.90
22321;DHT22;11328;53.928;18.522;2023-04-29T05:30:50;9.80;99.90
22321;DHT22;11328;53.928;18.522;2023-04-29T05:33:17;9.90;99.90
22321;DHT22;11328;53.928;18.522;2023-04-29T05:35:44;9.90;99.90
22321;DHT22;11328;53.928;18.522;2023-04-29T05:38:11;10.00;99.90
22321;DHT22;11328;53.928;18.522;2023-04-29T05:40:38;10.10;99.90
22321;DHT22;11328;53.928;18.522;2023-04-29T05:43:06;10.20;99.90
22321;DHT22;11328;53.928;18.522;2023-04-29T05:45:33;10.30;99.90
22321;DHT22;11328;53.928;18.522;2023-04-29T05:48:00;10.40;99.90
22321;DHT22;11328;53.928;18.522;2023-04-29T05:50:27;10.50;99.90
22321;DHT22;11328;53.928;18.522;2023-04-29T05:52:54;10.50;99.90
22321;DHT22;11328;53.928;18.522;2023-04-29T05:55:22;10.60;99.90
22321;DHT22;11328;53.928;18.522;2023-04-29T05:57:49;10.60;99.90
22321;DHT22;11328;53.928;18.522;2023-04-29T06:00:16;10.70;99.90
22321;DHT22;11328;53.928;18.522;2023-04-29T06:02:43;10.70;99.60
22321;DHT22;11328;53.928;18.522;2023-04-29T06:05:24;10.80;99.40
22321;DHT22;11328;53.928;18.522;2023-04-29T06:07:52;10.80;99.30
22321;DHT22;11328;53.928;18.522;2023-04-29T06:10:19;10.90;99.90
22321;DHT22;11328;53.928;18.522;2023-04-29T06:12:46;10.90;99.90
22321;DHT22;11328;53.928;18.522;2023-04-29T06:15:17;10.90;99.10
22321;DHT22;11328;53.928;18.522;2023-04-29T06:17:44;10.90;99.20
22321;DHT22;11328;53.928;18.522;2023-04-29T06:20:11;11.00;99.40
22321;DHT22;11328;53.928;18.522;2023-04-29T06:22:38;11.00;99.50
22321;DHT22;11328;53.928;18.522;2023-04-29T06:25:06;11.00;99.90
22321;DHT22;11328;53.928;18.522;2023-04-29T06:27:33;11.10;99.90
22321;DHT22;11328;53.928;18.522;2023-04-29T06:30:00;11.10;99.90
22321;DHT22;11328;53.928;18.522;2023-04-29T06:32:27;11.10;99.90
22321;DHT22;11328;53.928;18.522;2023-04-29T06:34:54;11.20;99.90
22321;DHT22;11328;53.928;18.522;2023-04-29T06:37:21;11.30;99.90
22321;DHT22;11328;53.928;18.522;2023-04-29T06:39:48;11.30;99.90
22321;DHT22;11328;53.928;18.522;2023-04-29T06:42:15;11.40;99.90
22321;DHT22;11328;53.928;18.522;2023-04-29T06:44:42;11.50;99.10
22321;DHT22;11328;53.928;18.522;2023-04-29T06:47:09;11.50;99.40
22321;DHT22;11328;53.928;18.522;2023-04-29T06:49:37;11.50;99.30
22321;DHT22;11328;53.928;18.522;2023-04-29T06:52:04;11.60;99.20
22321;DHT22;11328;53.928;18.522;2023-04-29T06:54:31;11.60;99.00
22321;DHT22;11328;53.928;18.522;2023-04-29T06:56:58;11.60;99.20
22321;DHT22;11328;53.928;18.522;2023-04-29T06:59:25;11.60;99.20
22321;DHT22;11328;53.928;18.522;2023-04-29T07:01:52;11.60;99.30
22321;DHT22;11328;53.928;18.522;2023-04-29T07:04:19;11.70;99.40
22321;DHT22;11328;53.928;18.522;2023-04-29T07:06:47;11.80;99.10
22321;DHT22;11328;53.928;18.522;2023-04-29T07:09:14;11.90;99.40
22321;DHT22;11328;53.928;18.522;2023-04-29T07:11:41;12.00;99.20
22321;DHT22;11328;53.928;18.522;2023-04-29T07:14:08;12.10;99.50
22321;DHT22;11328;53.928;18.522;2023-04-29T07:16:35;12.20;99.70
22321;DHT22;11328;53.928;18.522;2023-04-29T07:19:02;12.40;99.80
22321;DHT22;11328;53.928;18.522;2023-04-29T07:21:29;12.50;99.90
22321;DHT22;11328;53.928;18.522;2023-04-29T07:23:56;12.60;99.50
22321;DHT22;11328;53.928;18.522;2023-04-29T07:26:26;12.50;99.90
22321;DHT22;11328;53.928;18.522;2023-04-29T07:28:53;12.70;99.90
22321;DHT22;11328;53.928;18.522;2023-04-29T07:31:22;12.70;99.90
22321;DHT22;11328;53.928;18.522;2023-04-29T07:33:49;12.80;99.90
22321;DHT22;11328;53.928;18.522;2023-04-29T07:36:17;12.90;99.60
22321;DHT22;11328;53.928;18.522;2023-04-29T07:38:44;12.90;99.70
22321;DHT22;11328;53.928;18.522;2023-04-29T07:41:11;12.90;99.20
22321;DHT22;11328;53.928;18.522;2023-04-29T07:43:38;12.90;99.40
22321;DHT22;11328;53.928;18.522;2023-04-29T07:46:07;12.90;99.50
22321;DHT22;11328;53.928;18.522;2023-04-29T07:48:38;12.90;99.60
22321;DHT22;11328;53.928;18.522;2023-04-29T07:51:05;13.00;99.80
22321;DHT22;11328;53.928;18.522;2023-04-29T07:53:32;13.10;99.50
22321;DHT22;11328;53.928;18.522;2023-04-29T07:56:04;13.10;99.60
22321;DHT22;11328;53.928;18.522;2023-04-29T07:58:33;13.20;99.70
22321;DHT22;11328;53.928;18.522;2023-04-29T08:01:08;13.20;99.40
22321;DHT22;11328;53.928;18.522;2023-04-29T08:03:36;13.30;99.10
22321;DHT22;11328;53.928;18.522;2023-04-29T08:06:06;13.20;99.20
22321;DHT22;11328;53.928;18.522;2023-04-29T08:08:34;13.30;99.10
22321;DHT22;11328;53.928;18.522;2023-04-29T08:11:01;13.40;99.30
22321;DHT22;11328;53.928;18.522;2023-04-29T08:13:28;13.50;99.40
22321;DHT22;11328;53.928;18.522;2023-04-29T08:15:55;13.50;98.70
22321;DHT22;11328;53.928;18.522;2023-04-29T08:18:24;13.60;99.00
22321;DHT22;11328;53.928;18.522;2023-04-29T08:20:51;13.60;99.10
22321;DHT22;11328;53.928;18.522;2023-04-29T08:23:18;13.70;99.50
22321;DHT22;11328;53.928;18.522;2023-04-29T08:25:45;13.70;99.50
22321;DHT22;11328;53.928;18.522;2023-04-29T08:28:13;13.80;99.30
22321;DHT22;11328;53.928;18.522;2023-04-29T08:30:40;13.80;98.70
22321;DHT22;11328;53.928;18.522;2023-04-29T08:33:07;13.80;99.00
22321;DHT22;11328;53.928;18.522;2023-04-29T08:35:35;13.90;99.20
22321;DHT22;11328;53.928;18.522;2023-04-29T08:38:05;14.00;99.60
22321;DHT22;11328;53.928;18.522;2023-04-29T08:40:34;14.10;99.30
22321;DHT22;11328;53.928;18.522;2023-04-29T08:43:02;14.10;98.70
22321;DHT22;11328;53.928;18.522;2023-04-29T08:45:32;14.10;98.70
22321;DHT22;11328;53.928;18.522;2023-04-29T08:48:01;14.20;98.60
22321;DHT22;11328;53.928;18.522;2023-04-29T08:50:30;14.40;99.00
22321;DHT22;11328;53.928;18.522;2023-04-29T08:52:57;14.50;98.90
22321;DHT22;11328;53.928;18.522;2023-04-29T08:55:25;14.70;98.40
22321;DHT22;11328;53.928;18.522;2023-04-29T08:57:54;14.80;98.50
22321;DHT22;11328;53.928;18.522;2023-04-29T09:00:23;14.80;98.40
22321;DHT22;11328;53.928;18.522;2023-04-29T09:02:52;15.00;98.80
22321;DHT22;11328;53.928;18.522;2023-04-29T09:05:23;15.20;98.90
22321;DHT22;11328;53.928;18.522;2023-04-29T09:07:56;15.30;99.10
22321;DHT22;11328;53.928;18.522;2023-04-29T09:10:25;15.60;99.10
22321;DHT22;11328;53.928;18.522;2023-04-29T09:12:56;15.60;98.70
22321;DHT22;11328;53.928;18.522;2023-04-29T09:15:24;15.80;98.80
22321;DHT22;11328;53.928;18.522;2023-04-29T09:17:51;15.80;98.70
22321;DHT22;11328;53.928;18.522;2023-04-29T09:22:50;16.00;98.90
22321;DHT22;11328;53.928;18.522;2023-04-29T09:25:19;16.10;98.80
22321;DHT22;11328;53.928;18.522;2023-04-29T09:27:47;16.20;98.90
22321;DHT22;11328;53.928;18.522;2023-04-29T09:30:14;16.20;98.70
22321;DHT22;11328;53.928;18.522;2023-04-29T09:32:42;16.30;99.20
22321;DHT22;11328;53.928;18.522;2023-04-29T09:35:24;16.30;99.00
22321;DHT22;11328;53.928;18.522;2023-04-29T09:37:53;16.30;98.50
22321;DHT22;11328;53.928;18.522;2023-04-29T09:40:33;16.40;98.50
22321;DHT22;11328;53.928;18.522;2023-04-29T09:43:17;16.50;98.60
22321;DHT22;11328;53.928;18.522;2023-04-29T09:45:46;16.50;98.50
22321;DHT22;11328;53.928;18.522;2023-04-29T09:48:14;16.60;98.90
22321;DHT22;11328;53.928;18.522;2023-04-29T09:50:43;16.50;98.20
22321;DHT22;11328;53.928;18.522;2023-04-29T09:53:10;16.50;98.40
22321;DHT22;11328;53.928;18.522;2023-04-29T09:56:01;16.40;98.80
22321;DHT22;11328;53.928;18.522;2023-04-29T09:58:33;16.30;99.00
22321;DHT22;11328;53.928;18.522;2023-04-29T10:01:04;16.20;99.20
22321;DHT22;11328;53.928;18.522;2023-04-29T10:03:33;16.10;99.10
22321;DHT22;11328;53.928;18.522;2023-04-29T10:06:04;16.00;99.60
22321;DHT22;11328;53.928;18.522;2023-04-29T10:08:33;16.00;99.50
22321;DHT22;11328;53.928;18.522;2023-04-29T10:11:04;16.00;99.70
22321;DHT22;11328;53.928;18.522;2023-04-29T10:13:33;16.10;99.90
22321;DHT22;11328;53.928;18.522;2023-04-29T10:18:59;16.30;99.90
22321;DHT22;11328;53.928;18.522;2023-04-29T10:21:30;16.40;99.90
22321;DHT22;11328;53.928;18.522;2023-04-29T10:23:58;16.50;99.90
22321;DHT22;11328;53.928;18.522;2023-04-29T10:26:28;16.80;99.90
22321;DHT22;11328;53.928;18.522;2023-04-29T10:28:59;16.90;99.90
22321;DHT22;11328;53.928;18.522;2023-04-29T10:31:26;17.00;99.90
22321;DHT22;11328;53.928;18.522;2023-04-29T10:33:55;17.10;99.90
22321;DHT22;11328;53.928;18.522;2023-04-29T10:36:27;17.10;99.90
22321;DHT22;11328;53.928;18.522;2023-04-29T10:38:59;17.20;99.90
22321;DHT22;11328;53.928;18.522;2023-04-29T10:41:44;17.20;99.90
22321;DHT22;11328;53.928;18.522;2023-04-29T10:44:13;17.20;99.90
22321;DHT22;11328;53.928;18.522;2023-04-29T10:46:40;17.20;99.90
22321;DHT22;11328;53.928;18.522;2023-04-29T10:49:10;17.20;99.90
22321;DHT22;11328;53.928;18.522;2023-04-29T10:51:41;17.20;99.90
22321;DHT22;11328;53.928;18.522;2023-04-29T10:54:17;17.20;99.90
22321;DHT22;11328;53.928;18.522;2023-04-29T10:56:52;17.10;99.90
22321;DHT22;11328;53.928;18.522;2023-04-29T10:59:43;17.10;99.90
22321;DHT22;11328;53.928;18.522;2023-04-29T11:02:11;17.20;99.90
22321;DHT22;11328;53.928;18.522;2023-04-29T11:05:07;17.10;99.90
22321;DHT22;11328;53.928;18.522;2023-04-29T11:07:35;17.10;99.90
22321;DHT22;11328;53.928;18.522;2023-04-29T11:10:04;16.90;99.90
22321;DHT22;11328;53.928;18.522;2023-04-29T11:12:32;16.90;99.90
22321;DHT22;11328;53.928;18.522;2023-04-29T11:15:00;16.90;99.90
22321;DHT22;11328;53.928;18.522;2023-04-29T11:17:35;16.90;99.90
22321;DHT22;11328;53.928;18.522;2023-04-29T11:20:12;16.90;99.90
22321;DHT22;11328;53.928;18.522;2023-04-29T11:22:41;16.90;99.90
22321;DHT22;11328;53.928;18.522;2023-04-29T11:25:17;16.80;99.90
22321;DHT22;11328;53.928;18.522;2023-04-29T11:27:44;16.90;99.90
22321;DHT22;11328;53.928;18.522;2023-04-29T11:30:14;16.90;99.90
22321;DHT22;11328;53.928;18.522;2023-04-29T11:32:42;17.00;99.90
22321;DHT22;11328;53.928;18.522;2023-04-29T11:37:39;17.10;99.90
22321;DHT22;11328;53.928;18.522;2023-04-29T11:40:08;17.10;99.90
22321;DHT22;11328;53.928;18.522;2023-04-29T11:42:44;17.10;99.90
22321;DHT22;11328;53.928;18.522;2023-04-29T11:45:16;17.20;99.90
22321;DHT22;11328;53.928;18.522;2023-04-29T11:47:45;17.20;99.90
22321;DHT22;11328;53.928;18.522;2023-04-29T11:50:16;17.10;99.90
22321;DHT22;11328;53.928;18.522;2023-04-29T11:52:47;17.00;99.90
22321;DHT22;11328;53.928;18.522;2023-04-29T11:55:15;16.90;99.90
22321;DHT22;11328;53.928;18.522;2023-04-29T11:57:42;16.90;99.90
22321;DHT22;11328;53.928;18.522;2023-04-29T12:00:10;17.00;99.90
22321;DHT22;11328;53.928;18.522;2023-04-29T12:02:43;16.90;99.90
22321;DHT22;11328;53.928;18.522;2023-04-29T12:05:13;17.00;99.90
22321;DHT22;11328;53.928;18.522;2023-04-29T12:07:43;17.00;99.90
22321;DHT22;11328;53.928;18.522;2023-04-29T12:10:11;17.00;99.90
22321;DHT22;11328;53.928;18.522;2023-04-29T12:12:39;16.90;99.90
22321;DHT22;11328;53.928;18.522;2023-04-29T12:15:10;17.00;99.90
22321;DHT22;11328;53.928;18.522;2023-04-29T12:17:39;17.00;99.90
22321;DHT22;11328;53.928;18.522;2023-04-29T12:20:07;17.10;99.90
22321;DHT22;11328;53.928;18.522;2023-04-29T12:22:37;17.00;99.90
22321;DHT22;11328;53.928;18.522;2023-04-29T12:25:05;17.00;99.90
22321;DHT22;11328;53.928;18.522;2023-04-29T12:27:38;17.00;99.90
22321;DHT22;11328;53.928;18.522;2023-04-29T12:30:08;17.10;99.90
22321;DHT22;11328;53.928;18.522;2023-04-29T12:32:37;17.10;99.90
22321;DHT22;11328;53.928;18.522;2023-04-29T12:35:14;17.10;99.90
22321;DHT22;11328;53.928;18.522;2023-04-29T12:37:50;17.10;99.90
22321;DHT22;11328;53.928;18.522;2023-04-29T12:40:18;17.20;99.90
22321;DHT22;11328;53.928;18.522;2023-04-29T12:42:46;17.20;99.90
22321;DHT22;11328;53.928;18.522;2023-04-29T12:45:30;17.20;99.90
22321;DHT22;11328;53.928;18.522;2023-04-29T12:47:59;17.30;99.90
22321;DHT22;11328;53.928;18.522;2023-04-29T12:50:31;17.30;99.90
22321;DHT22;11328;53.928;18.522;2023-04-29T12:53:00;17.40;99.90
22321;DHT22;11328;53.928;18.522;2023-04-29T12:55:34;17.30;99.90
22321;DHT22;11328;53.928;18.522;2023-04-29T12:58:04;17.30;99.90
22321;DHT22;11328;53.928;18.522;2023-04-29T13:00:35;17.30;99.90
22321;DHT22;11328;53.928;18.522;2023-04-29T13:03:12;17.30;99.90
22321;DHT22;11328;53.928;18.522;2023-04-29T13:05:41;17.30;99.90
22321;DHT22;11328;53.928;18.522;2023-04-29T13:08:08;17.30;99.90
22321;DHT22;11328;53.928;18.522;2023-04-29T13:10:35;17.30;99.90
22321;DHT22;11328;53.928;18.522;2023-04-29T13:13:03;17.40;99.90
22321;DHT22;11328;53.928;18.522;2023-04-29T13:15:31;17.50;99.90
22321;DHT22;11328;53.928;18.522;2023-04-29T13:17:59;17.50;99.90
22321;DHT22;11328;53.928;18.522;2023-04-29T13:20:26;17.40;99.90
22321;DHT22;11328;53.928;18.522;2023-04-29T13:22:54;17.40;99.90
22321;DHT22;11328;53.928;18.522;2023-04-29T13:25:21;17.40;99.90
22321;DHT22;11328;53.928;18.522;2023-04-29T13:27:48;17.50;99.90
22321;DHT22;11328;53.928;18.522;2023-04-29T13:30:15;17.40;99.90
22321;DHT22;11328;53.928;18.522;2023-04-29T13:32:43;17.40;99.90
22321;DHT22;11328;53.928;18.522;2023-04-29T13:35:20;17.40;99.90
22321;DHT22;11328;53.928;18.522;2023-04-29T13:37:50;17.40;99.90
22321;DHT22;11328;53.928;18.522;2023-04-29T13:40:19;17.50;99.90
22321;DHT22;11328;53.928;18.522;2023-04-29T13:42:48;17.50;99.90
22321;DHT22;11328;53.928;18.522;2023-04-29T13:45:25;17.50;99.90
22321;DHT22;11328;53.928;18.522;2023-04-29T13:47:54;17.50;99.90
22321;DHT22;11328;53.928;18.522;2023-04-29T13:50:33;17.50;99.90
22321;DHT22;11328;53.928;18.522;2023-04-29T13:53:21;17.50;99.90
22321;DHT22;11328;53.928;18.522;2023-04-29T13:55:53;17.50;99.90
22321;DHT22;11328;53.928;18.522;2023-04-29T13:58:23;17.50;99.90
22321;DHT22;11328;53.928;18.522;2023-04-29T14:00:53;17.50;99.90
22321;DHT22;11328;53.928;18.522;2023-04-29T14:03:23;17.40;99.90
22321;DHT22;11328;53.928;18.522;2023-04-29T14:05:51;17.40;99.90
22321;DHT22;11328;53.928;18.522;2023-04-29T14:08:18;17.30;99.90
22321;DHT22;11328;53.928;18.522;2023-04-29T14:10:45;17.20;99.90
22321;DHT22;11328;53.928;18.522;2023-04-29T14:13:13;17.10;99.90
22321;DHT22;11328;53.928;18.522;2023-04-29T14:15:40;16.90;99.90
22321;DHT22;11328;53.928;18.522;2023-04-29T14:18:08;16.90;99.90
22321;DHT22;11328;53.928;18.522;2023-04-29T14:20:37;16.80;99.90
22321;DHT22;11328;53.928;18.522;2023-04-29T14:23:05;16.80;99.90
22321;DHT22;11328;53.928;18.522;2023-04-29T14:25:33;16.70;99.90
22321;DHT22;11328;53.928;18.522;2023-04-29T14:28:01;16.50;99.90
22321;DHT22;11328;53.928;18.522;2023-04-29T14:30:29;16.50;99.90
22321;DHT22;11328;53.928;18.522;2023-04-29T14:32:59;16.40;99.90
22321;DHT22;11328;53.928;18.522;2023-04-29T14:35:28;16.40;99.90
22321;DHT22;11328;53.928;18.522;2023-04-29T14:38:01;16.40;99.90
22321;DHT22;11328;53.928;18.522;2023-04-29T14:40:28;16.30;99.90
22321;DHT22;11328;53.928;18.522;2023-04-29T14:42:55;16.10;99.90
22321;DHT22;11328;53.928;18.522;2023-04-29T14:45:24;15.90;99.90
22321;DHT22;11328;53.928;18.522;2023-04-29T14:47:51;15.80;99.90
22321;DHT22;11328;53.928;18.522;2023-04-29T14:50:19;15.90;99.90
22321;DHT22;11328;53.928;18.522;2023-04-29T14:52:46;15.90;99.90
22321;DHT22;11328;53.928;18.522;2023-04-29T14:55:13;16.10;99.90
22321;DHT22;11328;53.928;18.522;2023-04-29T14:57:41;16.20;99.90
22321;DHT22;11328;53.928;18.522;2023-04-29T15:00:08;16.20;99.90
22321;DHT22;11328;53.928;18.522;2023-04-29T15:02:37;16.20;99.90
22321;DHT22;11328;53.928;18.522;2023-04-29T15:05:05;16.20;99.90
22321;DHT22;11328;53.928;18.522;2023-04-29T15:07:33;16.10;99.90
22321;DHT22;11328;53.928;18.522;2023-04-29T15:10:04;16.00;99.90
22321;DHT22;11328;53.928;18.522;2023-04-29T15:12:33;16.00;99.90
22321;DHT22;11328;53.928;18.522;2023-04-29T15:15:00;16.10;99.90
22321;DHT22;11328;53.928;18.522;2023-04-29T15:17:28;16.20;99.90
22321;DHT22;11328;53.928;18.522;2023-04-29T15:19:55;16.30;99.90
22321;DHT22;11328;53.928;18.522;2023-04-29T15:22:22;16.40;99.90
22321;DHT22;11328;53.928;18.522;2023-04-29T15:24:52;16.40;99.90
22321;DHT22;11328;53.928;18.522;2023-04-29T15:27:19;16.30;99.90
22321;DHT22;11328;53.928;18.522;2023-04-29T15:29:47;16.20;99.90
22321;DHT22;11328;53.928;18.522;2023-04-29T15:32:15;16.30;99.90
22321;DHT22;11328;53.928;18.522;2023-04-29T15:34:43;16.30;99.90
22321;DHT22;11328;53.928;18.522;2023-04-29T15:37:11;16.30;99.90
22321;DHT22;11328;53.928;18.522;2023-04-29T15:39:39;16.20;99.90
22321;DHT22;11328;53.928;18.522;2023-04-29T15:42:07;16.10;99.90
22321;DHT22;11328;53.928;18.522;2023-04-29T15:44:36;16.10;99.90
22321;DHT22;11328;53.928;18.522;2023-04-29T15:47:03;16.10;99.90
22321;DHT22;11328;53.928;18.522;2023-04-29T15:49:30;16.20;99.90
22321;DHT22;11328;53.928;18.522;2023-04-29T15:51:57;16.10;99.90